Time;durP1;ratioP1;P1;durP2;ratioP2;P2;SDS_P1;SDS_P2;PMS_P1;PMS_P2;Temp;Humidity;BMP_temperature;BMP_pressure;BME280_temperature;BME280_humidity;BME280_pressure;Samples;Min_cycle;Max_cycle;Signal;HPM_P1;HPM_P2
2022/05/16 00:01:25;;;;;;;11.35;5.43;;;14.10;99.90;;;;;;5052926;28;20406;-66
2022/05/16 00:03:50;;;;;;;9.85;5.20;;;14.10;99.90;;;;;;5051951;28;20041;-66
2022/05/16 00:06:16;;;;;;;11.80;5.35;;;14.10;99.90;;;;;;5052717;28;20041;-66
2022/05/16 00:08:41;;;;;;;9.90;5.70;;;14.10;99.90;;;;;;5053041;28;20045;-67
2022/05/16 00:11:07;;;;;;;13.43;5.35;;;14.00;99.90;;;;;;5052448;28;20056;-66
2022/05/16 00:13:33;;;;;;;11.05;5.20;;;14.00;99.90;;;;;;5051546;28;20040;-66
2022/05/16 00:16:00;;;;;;;9.70;5.05;;;13.90;99.90;;;;;;5053017;28;20037;-67
2022/05/16 00:18:26;;;;;;;9.57;5.20;;;13.90;99.90;;;;;;5052877;28;20037;-67
2022/05/16 00:20:51;;;;;;;11.20;5.50;;;13.90;99.90;;;;;;5052429;28;20082;-67
2022/05/16 00:23:17;;;;;;;9.73;5.78;;;13.90;99.90;;;;;;5052755;28;20055;-66
2022/05/16 00:25:42;;;;;;;8.63;5.25;;;13.90;99.90;;;;;;5052616;28;20044;-67
2022/05/16 00:28:08;;;;;;;9.15;5.28;;;13.80;99.90;;;;;;5052547;28;20480;-67
2022/05/16 00:30:33;;;;;;;11.55;5.25;;;13.80;99.90;;;;;;5052438;28;20403;-66
2022/05/16 00:32:59;;;;;;;10.13;5.15;;;13.80;99.90;;;;;;5052520;28;20033;-67
2022/05/16 00:35:24;;;;;;;9.02;5.00;;;13.80;99.90;;;;;;5052373;28;20052;-66
2022/05/16 00:37:50;;;;;;;8.65;5.22;;;13.70;99.90;;;;;;5052475;28;20024;-66
2022/05/16 00:40:17;;;;;;;8.85;4.55;;;13.80;99.90;;;;;;5052092;28;20037;-66
2022/05/16 00:42:43;;;;;;;12.30;5.70;;;13.80;99.90;;;;;;5052167;28;20406;-67
2022/05/16 00:45:11;;;;;;;11.82;6.10;;;13.70;99.90;;;;;;5052357;28;20040;-66
2022/05/16 00:47:37;;;;;;;9.27;5.20;;;13.70;99.90;;;;;;5052261;28;20045;-66
2022/05/16 00:50:05;;;;;;;8.35;4.88;;;13.70;99.90;;;;;;5052120;28;20045;-68
2022/05/16 00:52:40;;;;;;;9.63;4.72;;;13.70;99.90;;;;;;5051040;28;20422;-68
2022/05/16 00:55:10;;;;;;;8.00;4.55;;;13.70;99.90;;;;;;5051992;28;20033;-69
2022/05/16 00:57:41;;;;;;;12.43;4.90;;;13.70;99.90;;;;;;5052320;28;20471;-68
2022/05/16 01:00:11;;;;;;;8.15;3.88;;;13.60;99.90;;;;;;5052054;28;20469;-69
2022/05/16 01:05:24;;;;;;;5.97;3.90;;;13.60;99.90;;;;;;5051910;28;20049;-68
2022/05/16 01:07:56;;;;;;;12.52;4.65;;;13.60;99.90;;;;;;5052387;28;20440;-69
2022/05/16 01:10:22;;;;;;;6.60;3.95;;;13.60;99.90;;;;;;5034124;28;20044;-69
2022/05/16 01:12:51;;;;;;;7.68;3.88;;;13.60;99.90;;;;;;5051823;28;20040;-68
2022/05/16 01:15:38;;;;;;;10.35;4.13;;;13.60;99.90;;;;;;5051834;28;20045;-69
2022/05/16 01:18:06;;;;;;;8.57;4.03;;;13.60;99.90;;;;;;5050971;28;20082;-66
2022/05/16 01:21:16;;;;;;;7.20;3.75;;;13.50;99.90;;;;;;5051272;28;20561;-68
2022/05/16 01:23:50;;;;;;;11.07;3.80;;;13.60;99.90;;;;;;5020419;28;20595;-67
2022/05/16 01:26:24;;;;;;;8.40;3.42;;;13.60;99.90;;;;;;5051464;28;20048;-67
2022/05/16 01:28:50;;;;;;;6.43;3.05;;;13.60;99.90;;;;;;5051896;28;20123;-67
2022/05/16 01:31:16;;;;;;;9.05;3.67;;;13.70;99.90;;;;;;5051303;28;20045;-67
2022/05/16 01:33:42;;;;;;;5.35;2.97;;;13.70;99.90;;;;;;5050248;28;20037;-67
2022/05/16 01:36:08;;;;;;;7.57;4.15;;;13.60;99.90;;;;;;5051623;28;20037;-67
2022/05/16 01:38:35;;;;;;;5.43;2.70;;;13.60;99.90;;;;;;5051429;28;20499;-67
2022/05/16 01:41:05;;;;;;;5.63;3.00;;;13.60;99.90;;;;;;5051042;28;20069;-68
2022/05/16 01:43:41;;;;;;;5.07;2.67;;;13.60;99.90;;;;;;5051674;28;20029;-68
2022/05/16 01:46:08;;;;;;;5.45;2.70;;;13.50;99.90;;;;;;5051615;28;20044;-68
2022/05/16 01:48:34;;;;;;;5.78;2.83;;;13.60;99.90;;;;;;5051564;28;20044;-68
2022/05/16 01:51:03;;;;;;;8.82;2.67;;;13.60;99.90;;;;;;5051139;28;20041;-68
2022/05/16 01:53:29;;;;;;;8.60;2.80;;;13.60;99.90;;;;;;5051215;28;20102;-68
2022/05/16 01:55:55;;;;;;;6.25;2.58;;;13.50;99.90;;;;;;5051516;28;20482;-67
2022/05/16 01:58:21;;;;;;;6.30;2.70;;;13.50;99.90;;;;;;5050100;28;20037;-68
2022/05/16 02:00:47;;;;;;;5.25;2.60;;;13.60;99.90;;;;;;5051113;28;20041;-67
2022/05/16 02:03:13;;;;;;;4.88;2.50;;;13.50;99.90;;;;;;5033670;28;20044;-67
2022/05/16 02:05:42;;;;;;;4.50;2.53;;;13.50;99.90;;;;;;5049989;28;20045;-67
2022/05/16 02:08:08;;;;;;;5.10;1.92;;;13.50;99.90;;;;;;5051455;28;20390;-67
2022/05/16 02:10:34;;;;;;;3.35;2.00;;;13.50;99.90;;;;;;5051181;28;20406;-68
2022/05/16 02:13:03;;;;;;;3.60;2.75;;;13.50;99.90;;;;;;5049861;28;20063;-68
2022/05/16 02:15:30;;;;;;;8.80;2.53;;;13.60;99.80;;;;;;5033213;28;20128;-67
2022/05/16 02:17:56;;;;;;;4.30;2.05;;;13.50;99.50;;;;;;5049881;28;20056;-67
2022/05/16 02:20:22;;;;;;;7.28;2.42;;;13.60;99.60;;;;;;5050820;28;20037;-67
2022/05/16 02:25:37;;;;;;;4.85;1.80;;;13.50;99.50;;;;;;5051319;28;20048;-68
2022/05/16 02:28:05;;;;;;;3.75;2.60;;;13.50;99.30;;;;;;5051116;28;20403;-68
2022/05/16 02:30:30;;;;;;;3.90;2.15;;;13.40;99.50;;;;;;5051629;28;20041;-67
2022/05/16 02:32:57;;;;;;;3.70;2.00;;;13.40;99.30;;;;;;5053267;28;20169;-67
2022/05/16 02:35:23;;;;;;;3.53;1.90;;;13.40;99.50;;;;;;5054906;28;20402;-68
2022/05/16 02:37:49;;;;;;;5.60;2.40;;;13.50;99.40;;;;;;5054722;28;20037;-67
2022/05/16 02:40:15;;;;;;;4.15;2.10;;;13.40;99.50;;;;;;5054742;28;20037;-68
2022/05/16 02:42:40;;;;;;;4.60;2.00;;;13.40;99.20;;;;;;5054580;28;20433;-67
2022/05/16 02:45:07;;;;;;;7.03;2.20;;;13.40;99.20;;;;;;5054546;28;20120;-68
2022/05/16 02:47:33;;;;;;;3.75;2.25;;;13.40;99.40;;;;;;5053471;28;20502;-68
2022/05/16 02:49:59;;;;;;;5.30;1.75;;;13.30;99.50;;;;;;5054618;28;20510;-67
2022/05/16 02:52:24;;;;;;;3.50;1.98;;;13.30;99.40;;;;;;5054645;28;20036;-67
2022/05/16 02:54:51;;;;;;;4.72;2.10;;;13.20;99.60;;;;;;5053083;28;20048;-67
2022/05/16 02:57:18;;;;;;;5.30;2.42;;;13.20;99.80;;;;;;5054503;28;20079;-68
2022/05/16 02:59:43;;;;;;;4.38;2.08;;;13.20;99.80;;;;;;5054329;28;20086;-68
2022/05/16 03:02:10;;;;;;;6.97;2.20;;;13.20;99.90;;;;;;5053930;28;20120;-67
2022/05/16 03:04:36;;;;;;;3.08;1.75;;;13.20;99.90;;;;;;5054546;28;20090;-67
2022/05/16 03:07:02;;;;;;;4.75;2.10;;;13.20;99.90;;;;;;5054472;28;20071;-67
2022/05/16 03:09:29;;;;;;;5.10;2.13;;;13.10;99.90;;;;;;5054156;28;20048;-67
2022/05/16 03:11:55;;;;;;;4.57;1.85;;;13.10;99.90;;;;;;5052494;28;20040;-67
2022/05/16 03:14:21;;;;;;;3.25;1.88;;;13.10;99.90;;;;;;5053904;28;20123;-67
2022/05/16 03:16:47;;;;;;;2.60;1.83;;;13.10;99.90;;;;;;5053889;28;20036;-67
2022/05/16 03:19:13;;;;;;;6.10;2.30;;;13.10;99.90;;;;;;5054150;28;20124;-67
2022/05/16 03:21:39;;;;;;;5.75;2.20;;;13.10;99.90;;;;;;5053658;28;20068;-67
2022/05/16 03:24:06;;;;;;;3.03;2.05;;;13.00;99.90;;;;;;5053903;28;20045;-67
2022/05/16 03:26:32;;;;;;;5.18;2.03;;;13.00;99.90;;;;;;5053879;28;20091;-67
2022/05/16 03:28:57;;;;;;;4.32;1.65;;;13.00;99.90;;;;;;5053789;28;20446;-67
2022/05/16 03:31:23;;;;;;;3.10;1.85;;;12.90;99.90;;;;;;5076702;22;21147;-70
2022/05/16 03:33:48;;;;;;;5.40;2.30;;;13.00;99.90;;;;;;5053809;28;20044;-70
2022/05/16 03:36:14;;;;;;;3.75;2.08;;;12.90;99.90;;;;;;5051849;28;20103;-73
2022/05/16 03:41:24;;;;;;;3.83;1.60;;;12.90;99.90;;;;;;5052376;28;20077;-73
2022/05/16 03:43:51;;;;;;;8.02;1.98;;;12.90;99.90;;;;;;5052281;28;20061;-72
2022/05/16 03:46:18;;;;;;;4.05;1.73;;;12.90;99.90;;;;;;5053713;28;20052;-71
2022/05/16 03:48:44;;;;;;;3.20;2.15;;;12.90;99.90;;;;;;5052168;28;20421;-71
2022/05/16 03:51:11;;;;;;;4.00;2.25;;;12.90;99.90;;;;;;5051954;28;20128;-71
2022/05/16 03:53:46;;;;;;;3.83;2.10;;;12.90;99.90;;;;;;5052263;28;20444;-71
2022/05/16 03:56:15;;;;;;;3.75;1.80;;;12.90;99.90;;;;;;5053135;28;20051;-71
2022/05/16 03:58:41;;;;;;;3.25;2.20;;;12.90;99.90;;;;;;5053417;28;20115;-71
2022/05/16 04:01:08;;;;;;;3.88;1.77;;;12.90;99.90;;;;;;5051564;28;20041;-71
2022/05/16 04:03:34;;;;;;;3.22;2.03;;;12.90;99.90;;;;;;5053227;28;20127;-71
2022/05/16 04:06:00;;;;;;;4.03;1.83;;;12.90;99.90;;;;;;5051861;28;20124;-71
2022/05/16 04:08:26;;;;;;;5.35;2.53;;;12.90;99.90;;;;;;5052992;28;20036;-71
2022/05/16 04:10:51;;;;;;;2.72;1.88;;;12.90;99.90;;;;;;5052642;28;20518;-71
2022/05/16 04:13:17;;;;;;;4.18;2.03;;;12.90;99.90;;;;;;5053014;28;20037;-71
2022/05/16 04:15:42;;;;;;;3.67;2.03;;;12.90;99.90;;;;;;5052974;28;20045;-71
2022/05/16 04:18:08;;;;;;;4.47;2.25;;;12.90;99.90;;;;;;5052794;28;20032;-71
2022/05/16 04:20:34;;;;;;;3.35;1.70;;;13.00;99.90;;;;;;5052570;28;20033;-71
2022/05/16 04:22:59;;;;;;;3.90;1.70;;;13.00;99.90;;;;;;5052748;28;20441;-71
2022/05/16 04:25:25;;;;;;;5.82;2.05;;;13.00;99.90;;;;;;5052741;28;20044;-71
2022/05/16 04:27:51;;;;;;;3.58;2.20;;;13.00;99.90;;;;;;5051581;28;20045;-71
2022/05/16 04:30:16;;;;;;;2.78;1.95;;;13.10;99.90;;;;;;5052474;28;20124;-71
2022/05/16 04:32:42;;;;;;;4.60;2.10;;;13.10;99.90;;;;;;5051202;28;20079;-71
2022/05/16 04:35:08;;;;;;;4.55;1.95;;;13.10;99.90;;;;;;5052587;28;20037;-71
2022/05/16 04:37:34;;;;;;;4.93;2.30;;;13.10;99.90;;;;;;5052519;28;20033;-71
2022/05/16 04:40:01;;;;;;;3.22;1.85;;;13.20;99.70;;;;;;5052116;28;20040;-71
2022/05/16 04:42:42;;;;;;;7.68;2.38;;;13.20;99.50;;;;;;5051035;28;20112;-71
2022/05/16 04:45:10;;;;;;;4.50;2.03;;;13.20;99.70;;;;;;5052361;28;20037;-71
2022/05/16 04:47:36;;;;;;;2.97;1.85;;;13.20;99.60;;;;;;5052340;28;20049;-71
2022/05/16 04:50:03;;;;;;;3.20;2.20;;;13.20;99.60;;;;;;5034314;28;20434;-71
2022/05/16 04:52:29;;;;;;;6.43;2.35;;;13.20;99.60;;;;;;5050843;28;20037;-71
2022/05/16 04:54:55;;;;;;;5.10;2.15;;;13.20;99.50;;;;;;5052245;28;20041;-71
2022/05/16 04:57:20;;;;;;;6.63;2.63;;;13.40;99.50;;;;;;5051112;28;20033;-71
2022/05/16 04:59:47;;;;;;;5.25;2.20;;;13.40;99.10;;;;;;5050331;28;20048;-72
2022/05/16 05:02:14;;;;;;;7.60;2.83;;;13.50;98.80;;;;;;5050856;28;20045;-71
2022/05/16 05:04:40;;;;;;;6.15;2.40;;;13.60;98.60;;;;;;5050722;28;20076;-72
2022/05/16 05:07:05;;;;;;;9.75;2.35;;;13.60;98.40;;;;;;5050633;28;20118;-71
2022/05/16 05:09:31;;;;;;;5.57;2.30;;;13.60;98.60;;;;;;5052075;28;20068;-71
2022/05/16 05:14:42;;;;;;;4.03;2.22;;;13.50;98.90;;;;;;5050415;28;20045;-71
2022/05/16 05:17:10;;;;;;;4.13;2.28;;;13.60;99.00;;;;;;5051862;28;20037;-71
2022/05/16 05:19:40;;;;;;;7.25;2.92;;;13.60;98.70;;;;;;5051675;28;20036;-71
2022/05/16 05:22:06;;;;;;;3.90;2.25;;;13.70;98.50;;;;;;5049627;28;20029;-71
2022/05/16 05:24:32;;;;;;;6.20;2.35;;;13.70;98.50;;;;;;5051662;28;20052;-71
2022/05/16 05:26:57;;;;;;;8.82;3.17;;;13.70;98.80;;;;;;5051745;28;20048;-71
2022/05/16 05:29:24;;;;;;;4.57;1.98;;;13.70;98.70;;;;;;5051626;28;20072;-71
2022/05/16 05:31:50;;;;;;;8.05;2.90;;;13.80;98.50;;;;;;5050886;28;20126;-71
2022/05/16 05:34:17;;;;;;;4.03;2.35;;;13.80;98.20;;;;;;5051909;28;20524;-70
2022/05/16 05:36:43;;;;;;;5.90;2.35;;;13.90;97.90;;;;;;5052150;28;20068;-71
2022/05/16 05:39:13;;;;;;;6.43;3.13;;;14.00;97.80;;;;;;5035168;28;20037;-71
2022/05/16 05:41:39;;;;;;;4.93;2.30;;;14.20;97.40;;;;;;5050985;28;20033;-71
2022/05/16 05:44:05;;;;;;;4.00;2.75;;;14.40;97.00;;;;;;5051898;28;20087;-71
2022/05/16 05:46:39;;;;;;;6.13;2.30;;;14.60;96.10;;;;;;5053022;28;20429;-70
2022/05/16 05:49:05;;;;;;;3.80;2.45;;;14.70;95.40;;;;;;5051668;28;20045;-71
2022/05/16 05:51:32;;;;;;;4.78;2.28;;;14.80;95.10;;;;;;5050378;28;20053;-71
2022/05/16 05:54:07;;;;;;;5.00;3.30;;;14.90;94.60;;;;;;5053762;28;20513;-71
2022/05/16 05:56:34;;;;;;;6.35;2.80;;;15.20;94.10;;;;;;5053313;28;20041;-71
2022/05/16 05:59:00;;;;;;;4.35;2.70;;;15.60;93.20;;;;;;5054134;28;20040;-71
2022/05/16 06:01:26;;;;;;;5.65;2.78;;;15.80;91.70;;;;;;5039186;28;20576;-71
2022/05/16 06:03:53;;;;;;;5.72;2.33;;;15.90;90.90;;;;;;5054889;28;20395;-71
2022/05/16 06:06:19;;;;;;;5.57;2.40;;;15.80;90.40;;;;;;5057196;28;20415;-71
2022/05/16 06:08:45;;;;;;;4.25;2.67;;;15.70;90.60;;;;;;5056309;28;20056;-71
2022/05/16 06:11:10;;;;;;;5.43;2.60;;;16.00;90.40;;;;;;5054841;28;20044;-71
2022/05/16 06:13:38;;;;;;;8.18;2.83;;;16.20;89.20;;;;;;5055079;28;20100;-71
2022/05/16 06:16:05;;;;;;;10.45;3.00;;;16.50;87.30;;;;;;5055335;28;20037;-71
2022/05/16 06:18:30;;;;;;;6.88;2.92;;;16.80;83.70;;;;;;5053845;28;20045;-71
2022/05/16 06:20:56;;;;;;;5.25;2.70;;;17.10;81.60;;;;;;5054877;28;20037;-71
2022/05/16 06:23:21;;;;;;;8.43;3.28;;;16.80;80.70;;;;;;5054989;28;20044;-71
2022/05/16 06:25:47;;;;;;;5.53;2.70;;;16.70;81.90;;;;;;5054904;28;20090;-71
2022/05/16 06:28:17;;;;;;;6.68;2.45;;;16.50;83.30;;;;;;5055549;28;20076;-71
2022/05/16 06:30:46;;;;;;;7.47;2.47;;;16.40;84.80;;;;;;5055386;28;20245;-70
2022/05/16 06:33:12;;;;;;;5.35;2.75;;;16.40;85.40;;;;;;5038704;28;20041;-70
2022/05/16 06:35:38;;;;;;;8.40;2.60;;;16.30;85.40;;;;;;5054339;28;20041;-70
2022/05/16 06:38:06;;;;;;;10.68;2.80;;;16.20;85.40;;;;;;5054817;28;20037;-69
2022/05/16 06:40:32;;;;;;;6.32;2.50;;;16.20;86.20;;;;;;5054447;28;20124;-70
2022/05/16 06:42:58;;;;;;;6.50;3.30;;;16.40;85.90;;;;;;5054625;28;20120;-70
2022/05/16 06:45:23;;;;;;;5.55;3.05;;;16.60;84.30;;;;;;5053286;28;20079;-69
2022/05/16 06:47:49;;;;;;;6.55;2.58;;;17.10;81.90;;;;;;5054599;28;20040;-69
2022/05/16 06:50:14;;;;;;;5.72;2.78;;;17.50;79.90;;;;;;5053161;28;20049;-69
2022/05/16 06:52:40;;;;;;;11.07;2.65;;;17.90;77.60;;;;;;5054431;28;20483;-69
2022/05/16 06:55:06;;;;;;;8.60;2.88;;;18.10;74.50;;;;;;5054387;28;20110;-69
2022/05/16 06:57:33;;;;;;;6.63;3.10;;;18.50;74.10;;;;;;5054326;28;20086;-69
2022/05/16 06:59:59;;;;;;;7.40;2.50;;;18.60;72.50;;;;;;5053012;28;20033;-69
2022/05/16 07:02:25;;;;;;;8.00;2.92;;;18.70;70.90;;;;;;5054398;28;20418;-69
2022/05/16 07:04:50;;;;;;;11.18;3.22;;;18.70;70.40;;;;;;5053048;28;20044;-70
2022/05/16 07:07:16;;;;;;;8.23;3.08;;;18.80;69.30;;;;;;5050262;28;20037;-70
2022/05/16 07:09:41;;;;;;;7.40;2.67;;;19.00;69.00;;;;;;5054026;28;20505;-70
2022/05/16 07:12:08;;;;;;;8.80;2.55;;;19.00;68.20;;;;;;5053719;28;20049;-70
2022/05/16 07:14:35;;;;;;;8.82;2.75;;;19.00;67.20;;;;;;5053963;28;20090;-70
2022/05/16 07:17:01;;;;;;;5.53;2.97;;;19.50;67.20;;;;;;5051583;28;20076;-70
2022/05/16 07:19:31;;;;;;;7.00;2.78;;;19.70;65.20;;;;;;5054071;28;20041;-70
2022/05/16 07:21:58;;;;;;;8.80;3.20;;;19.80;64.10;;;;;;5052257;28;20041;-70
2022/05/16 07:24:24;;;;;;;8.45;3.05;;;20.00;63.10;;;;;;5053780;28;20090;-70
2022/05/16 07:29:34;;;;;;;9.63;3.30;;;20.20;62.60;;;;;;5053947;28;20049;-70
2022/05/16 07:32:00;;;;;;;10.68;2.47;;;20.20;61.50;;;;;;5053326;28;20045;-70
2022/05/16 07:34:25;;;;;;;4.47;2.45;;;20.30;61.30;;;;;;5053567;28;20040;-70
2022/05/16 07:36:51;;;;;;;10.57;3.10;;;20.40;60.90;;;;;;5052335;28;20375;-70
2022/05/16 07:39:16;;;;;;;5.53;3.25;;;20.90;61.20;;;;;;5052206;28;20047;-71
2022/05/16 07:41:43;;;;;;;8.70;3.42;;;20.90;60.00;;;;;;5052207;28;20041;-70
2022/05/16 07:44:09;;;;;;;8.98;3.00;;;20.70;58.80;;;;;;5053520;28;20525;-70
2022/05/16 07:46:35;;;;;;;6.85;2.92;;;20.90;59.00;;;;;;5053401;28;20045;-71
2022/05/16 07:49:00;;;;;;;9.98;3.22;;;20.90;58.90;;;;;;5052094;28;20045;-70
2022/05/16 07:51:26;;;;;;;8.13;3.08;;;21.10;58.80;;;;;;5052992;28;20045;-71
2022/05/16 07:53:51;;;;;;;5.43;3.03;;;21.20;57.90;;;;;;5053041;28;20700;-70
2022/05/16 07:56:17;;;;;;;8.25;2.88;;;21.00;57.90;;;;;;5053184;28;20072;-70
2022/05/16 07:58:43;;;;;;;8.52;2.80;;;20.90;58.40;;;;;;5053348;28;20513;-71
2022/05/16 08:01:08;;;;;;;7.13;2.47;;;21.10;58.10;;;;;;5052901;28;20441;-70
2022/05/16 08:03:34;;;;;;;10.02;2.60;;;21.30;57.70;;;;;;5053104;28;20055;-71
2022/05/16 08:06:00;;;;;;;7.85;2.45;;;21.30;57.30;;;;;;5052992;28;20041;-71
2022/05/16 08:11:12;;;;;;;11.20;3.13;;;21.50;56.60;;;;;;5052717;28;20037;-70
2022/05/16 08:13:38;;;;;;;7.75;2.88;;;21.80;56.60;;;;;;5052783;28;20395;-70
2022/05/16 08:16:04;;;;;;;7.80;2.63;;;22.00;56.00;;;;;;5052906;28;20159;-71
2022/05/16 08:18:30;;;;;;;9.80;2.97;;;22.30;56.30;;;;;;5052777;28;20481;-71
2022/05/16 08:20:55;;;;;;;6.78;2.58;;;22.20;54.70;;;;;;5052270;28;20033;-71
2022/05/16 08:23:26;;;;;;;6.18;2.50;;;22.40;54.60;;;;;;5052787;28;20434;-71
2022/05/16 08:25:53;;;;;;;10.85;2.88;;;22.40;54.30;;;;;;5052751;28;20125;-71
2022/05/16 08:28:19;;;;;;;8.50;2.65;;;22.50;54.00;;;;;;5050998;28;20045;-71
2022/05/16 08:30:45;;;;;;;9.98;2.67;;;22.50;53.70;;;;;;5051023;28;20147;-71
2022/05/16 08:33:11;;;;;;;6.45;2.75;;;22.50;53.50;;;;;;5052110;28;20041;-70
2022/05/16 08:35:37;;;;;;;13.73;3.00;;;22.50;53.40;;;;;;5052273;28;20053;-71
2022/05/16 08:41:03;;;;;;;8.48;2.83;;;22.70;53.40;;;;;;5052006;28;20503;-71
2022/05/16 08:43:50;;;;;;;8.80;2.80;;;22.70;52.10;;;;;;5052315;28;20079;-71
2022/05/16 08:46:33;;;;;;;7.20;2.85;;;22.80;52.90;;;;;;5052192;28;20521;-70
2022/05/16 08:49:24;;;;;;;8.77;2.67;;;22.90;52.60;;;;;;5052170;28;20525;-70
2022/05/16 08:51:57;;;;;;;5.53;2.78;;;23.00;52.60;;;;;;5051981;28;20442;-74
2022/05/16 08:54:37;;;;;;;7.55;2.92;;;22.80;52.10;;;;;;5050952;28;20491;-72
2022/05/16 08:57:06;;;;;;;8.30;2.58;;;22.70;52.20;;;;;;5052449;28;20510;-71
2022/05/16 08:59:36;;;;;;;6.95;2.60;;;22.90;52.40;;;;;;5052191;28;20494;-71
2022/05/16 09:02:08;;;;;;;11.43;3.05;;;23.10;51.90;;;;;;5050562;28;20111;-71
2022/05/16 09:04:49;;;;;;;11.45;3.63;;;23.00;51.70;;;;;;5050828;28;20048;-71
2022/05/16 09:07:37;;;;;;;12.45;2.90;;;23.30;51.60;;;;;;5052186;28;20426;-71
2022/05/16 09:10:16;;;;;;;6.47;2.55;;;23.60;51.60;;;;;;5051657;28;20072;-70
2022/05/16 09:13:01;;;;;;;13.75;2.72;;;23.90;50.90;;;;;;5051880;28;20064;-71
2022/05/16 09:16:00;;;;;;;7.28;3.10;;;23.80;50.50;;;;;;5051680;28;20037;-71
2022/05/16 09:18:50;;;;;;;7.00;2.45;;;23.80;50.00;;;;;;5051027;28;20088;-71
2022/05/16 09:21:28;;;;;;;5.88;2.88;;;23.90;49.80;;;;;;5051274;28;20175;-71
2022/05/16 09:24:09;;;;;;;11.25;3.72;;;23.90;50.30;;;;;;5051971;28;20040;-71
2022/05/16 09:26:36;;;;;;;8.43;2.63;;;23.70;49.50;;;;;;5051692;28;20438;-71
2022/05/16 09:29:14;;;;;;;10.15;2.60;;;23.80;49.90;;;;;;5051768;28;20037;-71
2022/05/16 09:31:44;;;;;;;9.65;2.75;;;23.70;49.40;;;;;;5075399;22;20124;-69
2022/05/16 09:34:11;;;;;;;8.77;2.75;;;23.70;50.50;;;;;;5070538;28;20108;-68
2022/05/16 09:36:42;;;;;;;9.35;2.90;;;23.70;50.20;;;;;;5071406;28;20040;-68
2022/05/16 09:39:10;;;;;;;7.03;2.72;;;23.50;49.60;;;;;;5071186;28;20036;-68
2022/05/16 09:41:43;;;;;;;12.57;2.45;;;23.60;50.10;;;;;;5069990;28;20044;-68
2022/05/16 09:44:26;;;;;;;5.75;2.17;;;23.60;49.80;;;;;;5071509;28;20044;-68
2022/05/16 09:47:21;;;;;;;9.35;2.67;;;23.80;50.00;;;;;;5071686;28;20127;-68
2022/05/16 09:50:02;;;;;;;7.38;3.10;;;24.00;50.30;;;;;;5071498;28;20082;-68
2022/05/16 09:52:42;;;;;;;6.68;2.45;;;24.20;49.00;;;;;;5071098;28;20102;-68
2022/05/16 09:55:28;;;;;;;7.63;2.60;;;24.40;48.50;;;;;;5071612;28;20087;-68
2022/05/16 09:58:12;;;;;;;9.35;2.75;;;24.60;48.10;;;;;;5071020;28;20139;-68
2022/05/16 10:00:43;;;;;;;8.40;2.78;;;24.70;47.30;;;;;;5071074;28;20090;-69
2022/05/16 10:03:27;;;;;;;7.10;2.72;;;24.70;47.70;;;;;;5071500;28;20076;-68
2022/05/16 10:05:54;;;;;;;6.40;2.50;;;24.70;47.80;;;;;;5071539;28;20123;-68
2022/05/16 10:08:25;;;;;;;8.27;2.22;;;24.50;47.60;;;;;;5071481;28;20041;-68
2022/05/16 10:10:51;;;;;;;8.90;2.65;;;24.50;48.00;;;;;;5071014;28;20036;-68
2022/05/16 10:13:17;;;;;;;7.15;2.72;;;24.60;48.30;;;;;;5071118;28;20048;-68
2022/05/16 10:15:45;;;;;;;11.13;3.13;;;24.80;48.60;;;;;;5071423;28;20041;-68
2022/05/16 10:18:18;;;;;;;7.78;2.42;;;24.90;47.80;;;;;;5071497;28;20086;-68
2022/05/16 10:20:48;;;;;;;8.32;2.70;;;25.00;47.10;;;;;;5069918;28;20076;-68
2022/05/16 10:23:28;;;;;;;10.15;3.03;;;25.20;47.20;;;;;;5071225;28;20068;-69
2022/05/16 10:25:59;;;;;;;8.82;3.15;;;25.30;46.60;;;;;;5070889;28;20514;-68
2022/05/16 10:28:30;;;;;;;10.18;3.10;;;25.40;46.30;;;;;;5071231;28;20041;-68
2022/05/16 10:33:45;;;;;;;7.10;3.00;;;25.80;47.00;;;;;;5070818;28;20059;-68
2022/05/16 10:36:26;;;;;;;14.52;3.33;;;25.80;45.60;;;;;;5070507;28;20124;-68
2022/05/16 10:39:06;;;;;;;7.07;2.58;;;25.70;46.40;;;;;;5070775;28;20032;-69
2022/05/16 10:41:49;;;;;;;6.40;2.42;;;25.60;45.50;;;;;;5070611;28;20066;-68
2022/05/16 10:44:47;;;;;;;7.47;2.55;;;25.60;46.50;;;;;;5071084;28;20040;-70
2022/05/16 10:47:15;;;;;;;7.40;2.58;;;25.60;45.70;;;;;;5069898;28;20033;-69
2022/05/16 10:50:00;;;;;;;5.68;2.60;;;25.60;45.90;;;;;;5070965;28;20037;-69
2022/05/16 10:52:33;;;;;;;7.82;2.75;;;25.70;45.50;;;;;;5073754;28;20040;-69
2022/05/16 10:54:59;;;;;;;10.35;2.75;;;25.70;45.80;;;;;;5073740;28;20086;-69
2022/05/16 10:57:39;;;;;;;9.05;2.85;;;25.80;45.30;;;;;;5074101;28;20454;-69
2022/05/16 11:00:15;;;;;;;6.90;2.75;;;25.90;44.30;;;;;;5071612;28;20039;-69
2022/05/16 11:03:00;;;;;;;5.75;2.78;;;26.00;44.20;;;;;;5072439;28;20051;-68
2022/05/16 11:05:38;;;;;;;6.93;2.25;;;26.00;44.20;;;;;;5070501;28;20036;-68
2022/05/16 11:08:09;;;;;;;7.82;3.47;;;26.10;43.90;;;;;;5069501;28;20124;-68
2022/05/16 11:10:52;;;;;;;4.78;2.45;;;26.20;44.10;;;;;;5072072;28;20040;-68
2022/05/16 11:13:26;;;;;;;7.45;2.42;;;26.30;44.40;;;;;;5069158;28;20032;-68
2022/05/16 11:16:00;;;;;;;5.38;2.72;;;26.30;44.30;;;;;;5071854;28;20098;-68
2022/05/16 11:18:46;;;;;;;7.13;2.30;;;26.30;44.10;;;;;;5074431;28;20123;-68
2022/05/16 11:21:33;;;;;;;6.55;2.35;;;26.30;43.40;;;;;;5072161;28;20064;-67
2022/05/16 11:24:01;;;;;;;10.18;3.13;;;26.40;43.70;;;;;;5071430;28;20032;-67
2022/05/16 11:26:41;;;;;;;8.13;3.15;;;26.40;44.20;;;;;;5073712;28;20036;-67
2022/05/16 11:29:20;;;;;;;5.90;2.53;;;26.40;44.00;;;;;;5072057;28;20106;-67
2022/05/16 11:31:58;;;;;;;7.43;3.00;;;26.10;43.00;;;;;;5073009;28;20119;-69
2022/05/16 11:34:49;;;;;;;6.20;2.72;;;25.90;43.70;;;;;;5072572;28;20433;-69
2022/05/16 11:37:40;;;;;;;5.55;2.55;;;25.70;44.70;;;;;;5073615;28;20043;-69
2022/05/16 11:40:12;;;;;;;5.75;2.38;;;25.40;44.00;;;;;;5072071;28;20394;-68
2022/05/16 11:42:52;;;;;;;7.70;2.83;;;25.20;44.80;;;;;;5073492;28;20604;-69
2022/05/16 11:45:28;;;;;;;6.53;2.47;;;25.10;44.40;;;;;;5073415;28;20037;-69
2022/05/16 11:48:23;;;;;;;6.53;2.67;;;24.90;48.10;;;;;;5072386;28;20094;-68
2022/05/16 11:51:30;;;;;;;6.35;2.50;;;24.70;50.50;;;;;;5073176;28;20044;-68
2022/05/16 11:53:59;;;;;;;7.03;2.70;;;24.50;50.90;;;;;;5038785;28;20056;-69
2022/05/16 12:02:11;;;;;;;8.35;3.22;;;24.30;50.30;;;;;;5072657;28;20107;-68
2022/05/16 12:04:47;;;;;;;10.32;3.22;;;24.20;51.60;;;;;;5073236;28;20040;-68
2022/05/16 12:07:18;;;;;;;15.50;3.70;;;24.10;53.20;;;;;;5073232;28;20040;-68
2022/05/16 12:09:57;;;;;;;6.88;2.88;;;24.10;53.50;;;;;;5073069;28;20045;-68
2022/05/16 12:12:41;;;;;;;7.00;2.40;;;24.00;52.60;;;;;;5071718;28;20036;-68
2022/05/16 12:15:14;;;;;;;12.00;3.30;;;24.00;54.40;;;;;;5073068;28;20105;-68
2022/05/16 12:17:48;;;;;;;;;;;23.90;53.80;;;;;;5072173;28;20090;-68
2022/05/16 12:20:15;;;;;;;6.65;2.92;;;23.70;53.50;;;;;;5072557;28;19921;-68
2022/05/16 12:22:42;;;;;;;7.97;3.00;;;23.80;54.20;;;;;;5072685;28;20135;-68
2022/05/16 12:25:12;;;;;;;8.80;3.20;;;23.80;53.90;;;;;;5071576;28;20091;-68
2022/05/16 12:27:46;;;;;;;9.00;3.63;;;23.90;54.80;;;;;;5072818;28;20459;-69
2022/05/16 12:30:21;;;;;;;8.88;2.60;;;24.00;55.20;;;;;;5072099;28;20048;-70
2022/05/16 12:32:51;;;;;;;10.60;2.70;;;24.10;55.80;;;;;;5071059;28;20043;-71
2022/05/16 12:35:27;;;;;;;10.20;3.88;;;24.30;56.00;;;;;;5070716;28;20405;-72
2022/05/16 12:37:53;;;;;;;6.35;2.75;;;24.40;56.80;;;;;;5069238;28;20047;-72
2022/05/16 12:40:47;;;;;;;7.55;3.10;;;24.40;57.20;;;;;;5070180;28;20494;-72
2022/05/16 12:43:46;;;;;;;8.90;2.80;;;24.30;58.10;;;;;;5027731;28;20036;-72
2022/05/16 12:46:27;;;;;;;8.02;2.88;;;24.30;60.20;;;;;;5070249;28;20048;-72
2022/05/16 12:49:11;;;;;;;7.32;3.33;;;24.30;58.90;;;;;;5070243;28;20075;-72
2022/05/16 12:51:56;;;;;;;5.93;2.80;;;24.30;59.30;;;;;;5063102;28;20064;-72
2022/05/16 12:54:43;;;;;;;8.00;3.10;;;24.20;59.80;;;;;;5075326;28;20051;-72
2022/05/16 12:57:20;;;;;;;5.75;3.50;;;24.00;59.70;;;;;;5054322;28;20485;-73
2022/05/16 13:00:05;;;;;;;7.28;3.10;;;24.10;62.30;;;;;;5070537;28;20040;-73
2022/05/16 13:02:53;;;;;;;7.88;3.13;;;24.00;61.80;;;;;;5070928;28;20400;-72
2022/05/16 13:05:42;;;;;;;7.20;3.08;;;24.00;63.50;;;;;;5054078;28;20137;-73
2022/05/16 13:08:20;;;;;;;8.20;3.30;;;24.00;64.00;;;;;;5070891;28;20054;-73
2022/05/16 13:11:02;;;;;;;7.50;3.50;;;24.10;63.10;;;;;;5054135;28;20063;-73
2022/05/16 13:14:02;;;;;;;16.08;3.70;;;24.40;63.40;;;;;;5070345;28;20048;-73
2022/05/16 13:16:30;;;;;;;11.73;4.15;;;24.50;60.60;;;;;;5053816;28;20186;-73
2022/05/16 13:19:03;;;;;;;12.02;3.58;;;24.60;59.50;;;;;;5070726;28;20067;-73
2022/05/16 13:21:49;;;;;;;8.60;3.60;;;24.70;58.70;;;;;;5053481;28;20059;-73
2022/05/16 13:24:18;;;;;;;12.45;4.68;;;24.80;60.10;;;;;;5069933;28;20081;-73
2022/05/16 13:29:34;;;;;;;7.00;4.00;;;24.90;58.90;;;;;;5070443;28;20044;-73
2022/05/16 13:32:09;;;;;;;7.75;3.45;;;25.00;59.40;;;;;;5069775;28;20037;-73
2022/05/16 13:34:44;;;;;;;7.97;3.22;;;25.10;62.50;;;;;;5070012;28;20048;-72